createdAt,value
2022-11-17T00:02:07.223Z,2.00
2022-11-17T00:04:35.459Z,2.07
2022-11-17T00:07:05.014Z,2.07
2022-11-17T00:09:33.185Z,2.17
2022-11-17T00:12:22.482Z,1.73
2022-11-17T00:14:50.899Z,1.90
2022-11-17T00:17:19.093Z,2.50
2022-11-17T00:20:04.593Z,1.87
2022-11-17T00:22:34.269Z,2.23
2022-11-17T00:25:02.377Z,2.30
2022-11-17T00:27:30.579Z,2.13
2022-11-17T00:29:58.687Z,2.27
2022-11-17T00:32:40.815Z,1.73
2022-11-17T00:35:09.227Z,2.13
2022-11-17T00:38:02.024Z,2.50
2022-11-17T00:40:30.561Z,1.83
2022-11-17T00:42:58.736Z,2.50
2022-11-17T00:45:26.963Z,1.80
2022-11-17T00:47:55.032Z,2.37
2022-11-17T00:50:24.132Z,1.87
2022-11-17T00:52:53.692Z,2.00
2022-11-17T00:55:21.948Z,1.97
2022-11-17T00:57:50.299Z,2.17
2022-11-17T01:00:21.116Z,1.50
2022-11-17T01:02:49.217Z,1.50
2022-11-17T01:05:17.660Z,2.00
2022-11-17T01:07:46.907Z,2.00
2022-11-17T01:10:16.347Z,2.50
2022-11-17T01:12:44.486Z,2.07
2022-11-17T01:15:12.658Z,2.07
2022-11-17T01:17:40.723Z,2.07
2022-11-17T01:20:10.706Z,1.73
2022-11-17T01:22:38.903Z,1.70
2022-11-17T01:25:08.311Z,1.63
2022-11-17T01:27:38.015Z,2.07
2022-11-17T01:30:07.835Z,2.10
2022-11-17T01:32:35.999Z,1.73
2022-11-17T01:35:04.455Z,1.73
2022-11-17T01:37:32.704Z,1.63
2022-11-17T01:40:00.895Z,2.20
2022-11-17T01:42:29.328Z,1.90
2022-11-17T01:45:02.776Z,2.20
2022-11-17T01:47:41.081Z,1.53
2022-11-17T01:50:21.020Z,1.90
2022-11-17T01:52:51.715Z,1.87
2022-11-17T01:55:23.278Z,2.30
2022-11-17T01:57:55.354Z,2.57
2022-11-17T02:00:25.792Z,1.47
2022-11-17T02:02:54.653Z,2.07
2022-11-17T02:05:42.650Z,1.77
2022-11-17T02:08:12.135Z,1.70
2022-11-17T02:10:40.744Z,1.83
2022-11-17T02:13:10.490Z,1.30
2022-11-17T02:15:40.231Z,1.87
2022-11-17T02:18:08.558Z,2.20
2022-11-17T02:21:08.518Z,2.03
2022-11-17T02:24:22.352Z,1.63
2022-11-17T02:27:26.377Z,2.07
2022-11-17T02:30:02.709Z,1.47
2022-11-17T02:32:39.317Z,1.40
2022-11-17T02:35:19.099Z,2.20
2022-11-17T02:37:56.391Z,1.80
2022-11-17T02:40:31.867Z,1.50
2022-11-17T02:43:20.680Z,1.37
2022-11-17T02:45:54.629Z,1.80
2022-11-17T02:48:28.657Z,2.17
2022-11-17T02:50:58.682Z,1.53
2022-11-17T02:53:29.430Z,2.13
2022-11-17T02:56:02.489Z,2.30
2022-11-17T02:58:32.253Z,2.00
2022-11-17T03:01:33.920Z,1.63
2022-11-17T03:04:20.367Z,1.53
2022-11-17T03:07:00.394Z,1.80
2022-11-17T03:09:42.832Z,1.30
2022-11-17T03:12:17.773Z,1.50
2022-11-17T03:14:55.453Z,1.47
2022-11-17T03:17:31.142Z,1.67
2022-11-17T03:20:05.555Z,1.77
2022-11-17T03:22:43.937Z,1.80
2022-11-17T03:25:18.408Z,1.90
2022-11-17T03:27:49.428Z,1.43
2022-11-17T03:30:20.753Z,2.00
2022-11-17T03:32:55.000Z,1.73
2022-11-17T03:35:29.630Z,1.70
2022-11-17T03:38:02.612Z,1.43
2022-11-17T03:40:34.109Z,1.63
2022-11-17T03:43:06.481Z,1.70
2022-11-17T03:45:39.443Z,1.77
2022-11-17T03:48:14.517Z,1.73
2022-11-17T03:50:47.662Z,1.70
2022-11-17T03:53:15.834Z,1.40
2022-11-17T03:55:52.724Z,1.83
2022-11-17T03:58:25.599Z,1.80
2022-11-17T04:00:57.605Z,2.50
2022-11-17T04:03:31.935Z,1.90
2022-11-17T04:06:00.489Z,1.20
2022-11-17T04:08:30.710Z,1.50
2022-11-17T04:11:16.564Z,1.47
2022-11-17T04:14:02.156Z,2.40
2022-11-17T04:16:31.728Z,1.73
2022-11-17T04:19:00.005Z,1.40
2022-11-17T04:21:28.226Z,1.73
2022-11-17T04:23:57.800Z,1.50
2022-11-17T04:26:44.669Z,1.67
2022-11-17T04:29:12.832Z,1.17
2022-11-17T04:31:42.465Z,1.60
2022-11-17T04:34:10.594Z,1.93
2022-11-17T04:36:44.290Z,2.03
2022-11-17T04:39:14.099Z,2.23
2022-11-17T04:41:54.047Z,1.53
2022-11-17T04:44:24.716Z,2.00
2022-11-17T04:46:54.969Z,1.30
2022-11-17T04:49:25.596Z,1.50
2022-11-17T04:51:54.664Z,1.90
2022-11-17T04:54:25.174Z,1.67
2022-11-17T04:56:54.907Z,1.80
2022-11-17T04:59:23.690Z,1.70
2022-11-17T05:01:53.610Z,1.40
2022-11-17T05:04:36.820Z,1.90
2022-11-17T05:07:05.656Z,1.40
2022-11-17T05:09:34.222Z,1.23
2022-11-17T05:12:19.983Z,1.33
2022-11-17T05:14:50.115Z,1.57
2022-11-17T05:17:18.576Z,1.87
2022-11-17T05:19:48.596Z,1.30
2022-11-17T05:22:36.356Z,1.80
2022-11-17T05:25:06.050Z,1.10
2022-11-17T05:27:34.690Z,1.87
2022-11-17T05:30:03.812Z,1.90
2022-11-17T05:32:33.460Z,1.70
2022-11-17T05:35:01.644Z,1.77
2022-11-17T05:37:29.922Z,1.57
2022-11-17T05:39:58.159Z,1.80
2022-11-17T05:42:26.267Z,1.20
2022-11-17T05:44:54.419Z,1.57
2022-11-17T05:47:22.630Z,1.57
2022-11-17T05:49:52.170Z,1.60
2022-11-17T05:52:20.363Z,1.23
2022-11-17T05:54:48.519Z,1.43
2022-11-17T05:57:24.435Z,1.17
2022-11-17T05:59:59.516Z,1.17
2022-11-17T06:02:33.425Z,1.43
2022-11-17T06:05:04.256Z,1.27
2022-11-17T06:07:32.659Z,1.00
2022-11-17T06:10:00.828Z,1.30
2022-11-17T06:12:28.933Z,1.40
2022-11-17T06:14:57.053Z,1.93
2022-11-17T06:17:28.936Z,1.80
2022-11-17T06:20:02.529Z,1.60
2022-11-17T06:22:31.861Z,1.20
2022-11-17T06:25:00.868Z,1.10
2022-11-17T06:27:30.790Z,1.67
2022-11-17T06:30:03.295Z,1.43
2022-11-17T06:32:32.780Z,1.60
2022-11-17T06:35:04.880Z,1.10
2022-11-17T06:37:33.160Z,1.87
2022-11-17T06:40:01.376Z,1.40
2022-11-17T06:42:46.936Z,1.60
2022-11-17T06:45:15.293Z,1.33
2022-11-17T06:47:43.582Z,1.30
2022-11-17T06:50:13.183Z,1.53
2022-11-17T06:52:41.370Z,1.80
2022-11-17T06:55:10.587Z,1.43
2022-11-17T06:57:38.879Z,1.13
2022-11-17T07:00:08.928Z,1.50
2022-11-17T07:02:37.708Z,1.77
2022-11-17T07:05:06.635Z,1.10
2022-11-17T07:07:36.413Z,1.47
2022-11-17T07:10:05.170Z,1.23
2022-11-17T07:12:34.667Z,1.30
2022-11-17T07:15:02.928Z,1.20
2022-11-17T07:17:31.034Z,1.20
2022-11-17T07:19:59.303Z,1.50
2022-11-17T07:22:27.484Z,1.67
2022-11-17T07:24:57.118Z,1.33
2022-11-17T07:27:25.360Z,0.83
2022-11-17T07:29:53.476Z,1.00
2022-11-17T07:32:22.097Z,1.07
2022-11-17T07:34:50.475Z,0.90
2022-11-17T07:37:18.706Z,1.37
2022-11-17T07:39:46.823Z,1.20
2022-11-17T07:42:16.382Z,0.90
2022-11-17T07:44:44.601Z,0.90
2022-11-17T07:47:12.729Z,1.20
2022-11-17T07:49:41.006Z,1.33
2022-11-17T07:52:09.285Z,1.50
2022-11-17T07:54:37.494Z,1.70
2022-11-17T07:57:05.577Z,1.50
2022-11-17T07:59:34.980Z,2.13
2022-11-17T08:02:06.113Z,1.40
2022-11-17T08:04:34.575Z,1.80
2022-11-17T08:07:02.957Z,1.57
2022-11-17T08:09:31.053Z,1.40
2022-11-17T08:12:00.345Z,1.40
2022-11-17T08:14:28.398Z,1.40
2022-11-17T08:16:57.887Z,1.23
2022-11-17T08:19:25.905Z,1.13
2022-11-17T08:21:54.026Z,1.40
2022-11-17T08:24:22.126Z,1.23
2022-11-17T08:26:50.361Z,1.27
2022-11-17T08:29:18.460Z,1.13
2022-11-17T08:31:47.737Z,1.30
2022-11-17T08:34:17.150Z,1.57
2022-11-17T08:36:45.145Z,1.57
2022-11-17T08:39:13.187Z,1.30
2022-11-17T08:41:41.186Z,1.77
2022-11-17T08:44:09.418Z,2.50
2022-11-17T08:46:37.460Z,1.30
2022-11-17T08:49:05.482Z,1.30
2022-11-17T08:51:34.819Z,1.10
2022-11-17T08:54:02.865Z,0.90
2022-11-17T08:56:30.941Z,1.03
2022-11-17T08:58:59.031Z,1.13
2022-11-17T09:01:27.131Z,1.40
2022-11-17T09:03:55.292Z,0.80
2022-11-17T09:06:23.565Z,1.00
2022-11-17T09:08:55.948Z,1.27
2022-11-17T09:11:25.133Z,1.10
2022-11-17T09:13:53.174Z,1.43
2022-11-17T09:16:23.849Z,1.50
2022-11-17T09:18:56.845Z,0.93
2022-11-17T09:21:27.021Z,1.10
2022-11-17T09:23:56.335Z,1.60
2022-11-17T09:26:24.471Z,1.20
2022-11-17T09:28:52.625Z,1.30
2022-11-17T09:31:23.021Z,0.87
2022-11-17T09:33:51.232Z,1.07
2022-11-17T09:36:19.286Z,1.13
2022-11-17T09:38:47.973Z,1.03
2022-11-17T09:41:26.169Z,1.70
2022-11-17T09:44:05.950Z,1.23
2022-11-17T09:46:47.493Z,1.27
2022-11-17T09:49:28.457Z,1.37
2022-11-17T09:52:02.005Z,1.20
2022-11-17T09:54:39.950Z,1.27
2022-11-17T09:57:22.726Z,1.30
2022-11-17T10:00:08.570Z,1.10
2022-11-17T10:02:36.694Z,0.70
2022-11-17T10:05:06.646Z,0.80
2022-11-17T10:07:36.490Z,1.40
2022-11-17T10:10:07.264Z,1.40
2022-11-17T10:12:45.917Z,1.17
2022-11-17T10:15:24.819Z,1.20
2022-11-17T10:17:53.387Z,1.20
2022-11-17T10:20:22.296Z,0.80
2022-11-17T10:22:53.280Z,0.83
2022-11-17T10:25:36.369Z,1.40
2022-11-17T10:28:08.624Z,1.30
2022-11-17T10:30:37.293Z,1.00
2022-11-17T10:33:05.674Z,0.67
2022-11-17T10:35:36.405Z,1.10
2022-11-17T10:38:09.549Z,0.80
2022-11-17T10:40:50.164Z,1.03
2022-11-17T10:43:27.186Z,1.20
2022-11-17T10:45:59.261Z,1.00
2022-11-17T10:48:33.243Z,0.97
2022-11-17T10:51:03.240Z,0.90
2022-11-17T10:53:44.592Z,0.90
2022-11-17T10:56:16.397Z,1.00
2022-11-17T10:59:03.989Z,1.20
2022-11-17T11:01:35.003Z,0.90
2022-11-17T11:04:06.234Z,1.10
2022-11-17T11:06:36.409Z,0.90
2022-11-17T11:09:11.669Z,0.90
2022-11-17T11:11:46.017Z,1.10
2022-11-17T11:14:25.911Z,1.20
2022-11-17T11:16:55.645Z,1.37
2022-11-17T11:19:23.931Z,1.53
2022-11-17T11:22:28.162Z,1.53
2022-11-17T11:25:06.888Z,1.20
2022-11-17T11:27:57.575Z,1.50
2022-11-17T11:30:28.127Z,1.57
2022-11-17T11:33:11.057Z,1.10
2022-11-17T11:35:58.880Z,1.00
2022-11-17T11:38:49.501Z,0.90
2022-11-17T11:41:35.513Z,1.43
2022-11-17T11:44:23.534Z,0.90
2022-11-17T11:47:01.204Z,1.00
2022-11-17T11:49:37.645Z,0.87
2022-11-17T11:52:13.057Z,0.87
2022-11-17T11:54:50.847Z,1.30
2022-11-17T11:57:26.043Z,0.80
2022-11-17T12:00:04.072Z,0.87
2022-11-17T12:02:43.589Z,0.80
2022-11-17T12:05:25.960Z,1.10
2022-11-17T12:07:59.819Z,1.00
2022-11-17T12:10:32.961Z,1.30
2022-11-17T12:13:02.255Z,0.70
2022-11-17T12:15:37.620Z,1.30
2022-11-17T12:18:14.408Z,1.00
2022-11-17T12:21:01.101Z,1.67
2022-11-17T12:23:50.491Z,1.40
2022-11-17T12:26:27.350Z,1.00
2022-11-17T12:29:31.628Z,1.10
2022-11-17T12:32:02.644Z,1.30
2022-11-17T12:34:35.698Z,0.77
2022-11-17T12:37:26.073Z,0.70
2022-11-17T12:40:00.564Z,0.87
2022-11-17T12:42:30.414Z,0.93
2022-11-17T12:45:13.259Z,1.10
2022-11-17T12:47:44.345Z,0.83
2022-11-17T12:50:44.409Z,1.10
2022-11-17T12:53:42.597Z,1.00
2022-11-17T12:56:48.309Z,1.00
2022-11-17T12:59:54.407Z,1.40
2022-11-17T13:02:39.016Z,0.77
2022-11-17T13:05:14.516Z,0.73
2022-11-17T13:07:43.874Z,1.00
2022-11-17T13:10:26.664Z,1.07
2022-11-17T13:13:11.175Z,0.80
2022-11-17T13:15:39.859Z,0.70
2022-11-17T13:18:27.327Z,0.90
2022-11-17T13:20:55.569Z,1.00
2022-11-17T13:23:26.815Z,1.53
2022-11-17T13:26:11.490Z,0.90
2022-11-17T13:28:39.565Z,0.90
2022-11-17T13:31:13.798Z,1.20
2022-11-17T13:33:41.821Z,1.17
2022-11-17T13:36:19.597Z,1.10
2022-11-17T13:38:54.701Z,1.97
2022-11-17T13:41:25.694Z,1.53
2022-11-17T13:43:55.150Z,1.70
2022-11-17T13:46:23.647Z,1.97
2022-11-17T13:48:52.417Z,2.70
2022-11-17T13:51:28.803Z,3.03
2022-11-17T13:54:02.447Z,3.40
2022-11-17T13:56:35.505Z,2.53
2022-11-17T13:59:07.070Z,1.50
2022-11-17T14:01:35.099Z,1.93
2022-11-17T14:04:20.611Z,1.67
2022-11-17T14:07:00.780Z,1.70
2022-11-17T14:09:34.399Z,1.37
2022-11-17T14:12:10.115Z,1.60
2022-11-17T14:14:44.849Z,0.97
2022-11-17T14:17:20.003Z,1.50
2022-11-17T14:19:49.162Z,1.40
2022-11-17T14:22:31.526Z,1.13
2022-11-17T14:25:01.273Z,1.60
2022-11-17T14:27:41.485Z,1.83
2022-11-17T14:30:15.655Z,2.20
2022-11-17T14:32:43.632Z,1.33
2022-11-17T14:35:15.259Z,1.30
2022-11-17T14:37:43.740Z,1.10
2022-11-17T14:40:16.453Z,1.43
2022-11-17T14:42:44.733Z,1.43
2022-11-17T14:45:14.939Z,1.63
2022-11-17T14:47:43.539Z,1.07
2022-11-17T14:50:14.699Z,1.30
2022-11-17T14:52:43.713Z,1.20
2022-11-17T14:55:13.212Z,1.37
2022-11-17T14:57:42.746Z,1.13
2022-11-17T15:00:18.861Z,1.47
2022-11-17T15:02:48.598Z,0.90
2022-11-17T15:05:16.810Z,1.47
2022-11-17T15:07:45.019Z,1.40
2022-11-17T15:10:12.973Z,1.57
2022-11-17T15:12:42.330Z,1.30
2022-11-17T15:15:11.271Z,1.00
2022-11-17T15:17:39.414Z,1.40
2022-11-17T15:20:09.601Z,1.57
2022-11-17T15:22:37.633Z,1.10
2022-11-17T15:25:06.842Z,1.20
2022-11-17T15:27:34.898Z,1.00
2022-11-17T15:30:04.859Z,1.03
2022-11-17T15:32:32.885Z,1.33
2022-11-17T15:35:00.904Z,1.77
2022-11-17T15:37:28.881Z,1.00
2022-11-17T15:39:56.827Z,1.10
2022-11-17T15:42:24.778Z,1.10
2022-11-17T15:44:52.752Z,1.00
2022-11-17T15:47:23.134Z,1.60
2022-11-17T15:49:58.275Z,1.40
2022-11-17T15:52:48.705Z,1.63
2022-11-17T15:55:14.527Z,1.63
2022-11-17T15:57:43.210Z,1.97
2022-11-17T16:00:13.293Z,1.80
2022-11-17T16:02:43.290Z,2.60
2022-11-17T16:05:11.338Z,1.70
2022-11-17T16:07:39.799Z,1.60
2022-11-17T16:10:08.327Z,1.80
2022-11-17T16:12:36.333Z,1.97
2022-11-17T16:15:05.224Z,1.90
2022-11-17T16:17:33.229Z,2.40
2022-11-17T16:20:02.807Z,1.90
2022-11-17T16:22:31.700Z,1.83
2022-11-17T16:24:59.685Z,2.17
2022-11-17T16:27:27.617Z,2.00
2022-11-17T16:29:55.567Z,1.80
2022-11-17T16:32:23.496Z,2.30
2022-11-17T16:34:51.489Z,1.80
2022-11-17T16:37:20.822Z,2.27
2022-11-17T16:39:48.828Z,1.90
2022-11-17T16:42:16.818Z,1.40
2022-11-17T16:44:45.907Z,1.20
2022-11-17T16:47:14.147Z,2.07
2022-11-17T16:49:42.129Z,1.70
2022-11-17T16:52:10.254Z,2.20
2022-11-17T16:54:40.900Z,1.77
2022-11-17T16:57:09.296Z,1.80
2022-11-17T16:59:37.481Z,2.30
2022-11-17T17:02:05.479Z,1.53
2022-11-17T17:04:33.530Z,1.37
2022-11-17T17:07:01.571Z,1.50
2022-11-17T17:09:30.056Z,1.83
2022-11-17T17:11:59.585Z,1.70
2022-11-17T17:14:27.601Z,1.67
2022-11-17T17:16:55.581Z,1.30
2022-11-17T17:19:24.414Z,2.17
2022-11-17T17:21:52.437Z,1.57
2022-11-17T17:24:20.476Z,1.50
2022-11-17T17:26:48.806Z,2.10
2022-11-17T17:29:18.457Z,2.00
2022-11-17T17:31:46.665Z,2.00
2022-11-17T17:34:14.689Z,2.70
2022-11-17T17:36:42.756Z,1.63
2022-11-17T17:39:16.045Z,1.73
2022-11-17T17:41:45.839Z,2.37
2022-11-17T17:44:19.185Z,1.90
2022-11-17T17:46:48.638Z,1.27
2022-11-17T17:49:18.742Z,1.70
2022-11-17T17:51:47.143Z,1.60
2022-11-17T17:54:17.579Z,1.83
2022-11-17T17:56:45.784Z,1.30
2022-11-17T17:59:14.595Z,1.53
2022-11-17T18:01:46.032Z,2.13
2022-11-17T18:04:16.160Z,1.83
2022-11-17T18:06:47.782Z,1.80
2022-11-17T18:09:19.324Z,1.90
2022-11-17T18:11:49.859Z,1.40
2022-11-17T18:14:22.283Z,2.30
2022-11-17T18:16:52.125Z,2.03
2022-11-17T18:19:20.411Z,1.83
2022-11-17T18:21:48.466Z,2.33
2022-11-17T18:24:16.627Z,1.80
2022-11-17T18:26:44.702Z,2.70
2022-11-17T18:29:18.325Z,1.63
2022-11-17T18:31:47.796Z,1.80
2022-11-17T18:34:20.606Z,2.90
2022-11-17T18:36:48.755Z,2.10
2022-11-17T18:39:17.142Z,1.37
2022-11-17T18:41:46.949Z,1.70
2022-11-17T18:44:16.817Z,2.35
2022-11-17T18:46:44.895Z,1.90
2022-11-17T18:49:13.049Z,1.83
2022-11-17T18:51:42.562Z,2.10
2022-11-17T18:54:12.267Z,1.57
2022-11-17T18:56:40.867Z,1.70
2022-11-17T18:59:11.386Z,2.20
2022-11-17T19:01:41.945Z,1.73
2022-11-17T19:04:12.468Z,2.20
2022-11-17T19:06:41.854Z,1.77
2022-11-17T19:09:10.065Z,2.27
2022-11-17T19:11:38.174Z,2.10
2022-11-17T19:14:06.457Z,1.70
2022-11-17T19:16:42.567Z,2.23
2022-11-17T19:19:13.165Z,1.37
2022-11-17T19:21:43.702Z,2.13
2022-11-17T19:24:11.807Z,1.87
2022-11-17T19:26:39.854Z,2.33
2022-11-17T19:29:15.964Z,1.87
2022-11-17T19:31:45.499Z,1.70
2022-11-17T19:34:13.960Z,2.10
2022-11-17T19:36:44.281Z,2.17
2022-11-17T19:39:14.436Z,2.67
2022-11-17T19:41:43.552Z,1.83
2022-11-17T19:44:11.922Z,2.13
2022-11-17T19:46:39.990Z,1.67
2022-11-17T19:49:08.687Z,1.77
2022-11-17T19:51:37.767Z,2.30
2022-11-17T19:54:09.059Z,1.87
2022-11-17T19:56:38.256Z,2.00
2022-11-17T19:59:09.691Z,1.83
2022-11-17T20:01:40.510Z,2.60
2022-11-17T20:04:08.886Z,2.07
2022-11-17T20:06:39.667Z,2.20
2022-11-17T20:09:10.725Z,1.70
2022-11-17T20:11:39.178Z,1.97
2022-11-17T20:14:07.675Z,1.77
2022-11-17T20:16:36.750Z,2.80
2022-11-17T20:19:05.346Z,2.73
2022-11-17T20:21:34.631Z,1.90
2022-11-17T20:24:03.175Z,1.80
2022-11-17T20:26:35.038Z,2.30
2022-11-17T20:29:03.235Z,2.93
2022-11-17T20:31:33.925Z,2.20
2022-11-17T20:34:04.207Z,1.57
2022-11-17T20:36:34.481Z,1.50
2022-11-17T20:39:05.302Z,2.33
2022-11-17T20:41:35.150Z,1.50
2022-11-17T20:44:03.464Z,1.60
2022-11-17T20:46:31.702Z,1.57
2022-11-17T20:48:59.740Z,1.80
2022-11-17T20:51:27.916Z,1.87
2022-11-17T20:53:55.937Z,1.60
2022-11-17T20:56:24.058Z,1.43
2022-11-17T20:58:53.576Z,2.10
2022-11-17T21:01:23.898Z,1.50
2022-11-17T21:03:52.600Z,1.13
2022-11-17T21:06:22.877Z,1.80
2022-11-17T21:08:51.433Z,1.80
2022-11-17T21:11:35.541Z,1.87
2022-11-17T21:14:06.443Z,1.90
2022-11-17T21:16:35.201Z,2.00
2022-11-17T21:19:03.211Z,1.33
2022-11-17T21:21:31.466Z,1.33
2022-11-17T21:23:59.600Z,1.50
2022-11-17T21:26:28.614Z,2.17
2022-11-17T21:29:00.470Z,1.73
2022-11-17T21:31:32.885Z,2.13
2022-11-17T21:34:03.212Z,1.40
2022-11-17T21:36:32.580Z,1.70
2022-11-17T21:39:01.027Z,2.20
2022-11-17T21:41:31.542Z,1.60
2022-11-17T21:44:01.886Z,1.60
2022-11-17T21:46:34.687Z,1.93
2022-11-17T21:49:03.267Z,2.20
2022-11-17T21:51:33.847Z,1.57
2022-11-17T21:54:04.551Z,2.30
2022-11-17T21:56:33.041Z,1.80
2022-11-17T21:59:03.112Z,1.17
2022-11-17T22:01:33.324Z,1.53
2022-11-17T22:04:01.445Z,1.70
2022-11-17T22:06:30.548Z,1.67
2022-11-17T22:09:00.360Z,1.53
2022-11-17T22:11:37.463Z,1.92
2022-11-17T22:14:09.878Z,1.57
2022-11-17T22:16:42.069Z,1.97
2022-11-17T22:19:11.020Z,1.97
2022-11-17T22:21:39.871Z,2.20
2022-11-17T22:24:10.751Z,1.83
2022-11-17T22:26:40.912Z,2.13
2022-11-17T22:29:12.492Z,1.93
2022-11-17T22:31:42.373Z,1.80
2022-11-17T22:34:10.502Z,2.10
2022-11-17T22:36:38.576Z,1.67
2022-11-17T22:39:07.029Z,2.17
2022-11-17T22:41:35.126Z,1.83
2022-11-17T22:44:03.161Z,2.40
2022-11-17T22:46:31.206Z,1.97
2022-11-17T22:49:00.681Z,1.60
2022-11-17T22:51:46.134Z,2.03
2022-11-17T22:54:14.208Z,2.00
2022-11-17T22:56:42.411Z,2.23
2022-11-17T22:59:10.636Z,1.57
2022-11-17T23:01:38.813Z,3.40
2022-11-17T23:04:08.743Z,2.60
2022-11-17T23:06:36.734Z,2.40
2022-11-17T23:09:04.940Z,2.80
2022-11-17T23:11:37.532Z,2.60
2022-11-17T23:14:07.503Z,2.33
2022-11-17T23:16:35.593Z,2.37
2022-11-17T23:19:03.743Z,1.70
2022-11-17T23:21:33.447Z,2.07
2022-11-17T23:24:01.544Z,2.10
2022-11-17T23:26:29.555Z,2.07
2022-11-17T23:28:58.255Z,2.73
2022-11-17T23:31:27.719Z,2.00
2022-11-17T23:33:55.714Z,2.57
2022-11-17T23:36:24.842Z,2.53
2022-11-17T23:38:56.550Z,2.13
2022-11-17T23:41:24.646Z,2.50
2022-11-17T23:43:54.436Z,2.50
2022-11-17T23:46:24.762Z,2.40
2022-11-17T23:48:53.545Z,2.17
2022-11-17T23:51:24.164Z,2.00
2022-11-17T23:53:53.857Z,2.43
2022-11-17T23:56:22.599Z,2.10
2022-11-17T23:58:50.932Z,1.90
